Time;durP1;ratioP1;P1;durP2;ratioP2;P2;SDS_P1;SDS_P2;PMS_P1;PMS_P2;Temp;Humidity;BMP_temperature;BMP_pressure;BME280_temperature;BME280_humidity;BME280_pressure;Samples;Min_cycle;Max_cycle;Signal;HPM_P1;HPM_P2
2021/12/10 00:02:31;;;;;;;107.43;43.00;;;;;;;0.03;100.00;100265.25;4865639;29;20333;-83
2021/12/10 00:04:57;;;;;;;129.05;46.53;;;;;;;0.02;100.00;100273.16;4864478;29;20166;-82
2021/12/10 00:07:25;;;;;;;125.75;46.45;;;;;;;0.02;100.00;100265.25;4863903;29;20229;-82
2021/12/10 00:09:58;;;;;;;125.13;45.85;;;;;;;0.01;100.00;100258.25;4865531;29;20175;-81
2021/12/10 00:12:38;;;;;;;109.57;44.08;;;;;;;0.04;100.00;100245.94;4864145;29;20659;-81
2021/12/10 00:15:06;;;;;;;114.05;44.25;;;;;;;0.02;100.00;100249.47;4864222;29;20201;-82
2021/12/10 00:17:32;;;;;;;108.35;43.28;;;;;;;0.04;100.00;100248.56;4864805;29;20175;-82
2021/12/10 00:19:59;;;;;;;105.53;42.40;;;;;;;0.01;100.00;100240.69;4865483;29;20198;-82
2021/12/10 00:22:41;;;;;;;103.57;43.95;;;;;;;0.04;100.00;100231.88;4866907;29;20189;-83
2021/12/10 00:25:13;;;;;;;115.97;44.00;;;;;;;0.07;100.00;100240.66;4870334;29;20202;-82
2021/12/10 00:27:38;;;;;;;117.03;45.25;;;;;;;0.06;100.00;100224.84;4868163;29;20190;-82
2021/12/10 00:30:17;;;;;;;110.55;44.13;;;;;;;0.04;100.00;100237.16;4868888;29;20663;-83
2021/12/10 00:32:58;;;;;;;97.50;41.47;;;;;;;0.07;100.00;100226.63;4868590;29;20171;-82
2021/12/10 00:35:27;;;;;;;103.57;42.38;;;;;;;0.04;100.00;100231.88;4859650;29;20243;-83
2021/12/10 00:37:53;;;;;;;112.28;43.78;;;;;;;0.05;100.00;100223.13;4848069;29;20203;-82
2021/12/10 00:40:21;;;;;;;100.68;43.08;;;;;;;0.11;100.00;100230.97;4849854;29;20404;-83
2021/12/10 00:42:47;;;;;;;109.82;44.35;;;;;;;0.10;100.00;100226.59;4849507;29;20174;-82
2021/12/10 00:45:15;;;;;;;105.57;43.70;;;;;;;0.07;100.00;100227.50;4846928;29;20222;-82
2021/12/10 00:47:41;;;;;;;106.47;43.33;;;;;;;0.09;100.00;100209.94;4845773;29;20199;-82
2021/12/10 00:50:12;;;;;;;106.45;42.13;;;;;;;0.11;100.00;100204.63;4846486;29;20190;-82
2021/12/10 00:52:38;;;;;;;110.55;43.22;;;;;;;0.12;100.00;100209.03;4847863;29;20540;-82
2021/12/10 00:55:06;;;;;;;98.43;40.97;;;;;;;0.12;100.00;100209.03;4846274;29;20232;-82
2021/12/10 00:57:32;;;;;;;102.80;42.53;;;;;;;0.13;100.00;100222.19;4846362;29;20175;-82
2021/12/10 00:59:58;;;;;;;101.07;41.58;;;;;;;0.11;100.00;100208.16;4847216;29;20185;-82
2021/12/10 01:02:25;;;;;;;103.55;42.15;;;;;;;0.15;100.00;100203.72;4830287;29;20218;-82
2021/12/10 01:04:55;;;;;;;92.88;41.17;;;;;;;0.15;100.00;100203.72;4846008;29;20782;-82
2021/12/10 01:07:24;;;;;;;99.05;41.83;;;;;;;0.17;100.00;100196.69;4845610;29;20225;-83
2021/12/10 01:09:52;;;;;;;106.20;43.10;;;;;;;0.14;100.00;100194.97;4846965;29;20177;-84
2021/12/10 01:12:26;;;;;;;96.88;41.78;;;;;;;0.15;100.00;100201.09;4845722;29;20198;-83
2021/12/10 01:15:19;;;;;;;94.10;40.35;;;;;;;0.19;100.00;100193.16;4846055;29;20240;-82
2021/12/10 01:23:49;;;;;;;100.60;41.05;;;;;;;0.16;100.00;100174.75;4845856;29;20175;-83
2021/12/10 01:28:46;;;;;;;87.85;39.85;;;;;;;0.17;100.00;100176.50;4844281;29;20199;-83
2021/12/10 01:31:12;;;;;;;86.07;39.72;;;;;;;0.14;100.00;100168.63;4845502;29;20210;-83
2021/12/10 01:33:39;;;;;;;90.03;39.78;;;;;;;0.16;100.00;100171.25;4844822;29;20187;-83
2021/12/10 01:36:08;;;;;;;95.28;41.15;;;;;;;0.13;100.00;100166.00;4844785;29;20191;-83
2021/12/10 01:38:40;;;;;;;102.47;41.10;;;;;;;0.12;100.00;100164.25;4844312;29;20232;-83
2021/12/10 01:41:09;;;;;;;91.88;40.75;;;;;;;0.14;100.00;100162.50;4844657;29;20237;-83
2021/12/10 01:43:38;;;;;;;84.75;36.88;;;;;;;0.17;100.00;100168.59;4845311;29;20257;-83
2021/12/10 01:46:10;;;;;;;88.28;38.30;;;;;;;0.27;100.00;100166.78;4844781;29;20324;-83
2021/12/10 01:48:48;;;;;;;85.45;39.38;;;;;;;0.18;100.00;100167.72;4828467;29;20225;-83
2021/12/10 01:51:17;;;;;;;88.55;39.38;;;;;;;0.17;100.00;100165.94;4844276;29;20241;-82
2021/12/10 01:53:47;;;;;;;94.70;40.60;;;;;;;0.18;100.00;100154.56;4828477;29;20659;-82
2021/12/10 01:56:20;;;;;;;87.72;38.47;;;;;;;0.16;100.00;100153.69;4829436;29;20262;-82
2021/12/10 01:58:47;;;;;;;89.45;39.33;;;;;;;0.14;100.00;100144.91;4843984;29;20324;-83
2021/12/10 02:01:26;;;;;;;92.43;39.30;;;;;;;0.18;100.00;100143.16;4843944;29;20197;-82
2021/12/10 02:03:53;;;;;;;87.82;38.65;;;;;;;0.20;100.00;100146.66;4845456;29;20191;-82
2021/12/10 02:06:19;;;;;;;94.78;38.65;;;;;;;0.20;100.00;100149.28;4845243;29;20179;-82
2021/12/10 02:08:46;;;;;;;88.03;38.38;;;;;;;0.19;100.00;100139.63;4829429;29;20625;-83
2021/12/10 02:11:11;;;;;;;88.60;39.97;;;;;;;0.20;100.00;100139.63;4855950;29;20274;-82
2021/12/10 02:13:37;;;;;;;96.82;39.45;;;;;;;0.17;100.00;100141.38;4877271;29;20177;-82
2021/12/10 02:16:05;;;;;;;83.90;38.33;;;;;;;0.19;100.00;100145.75;4869990;29;20502;-83
2021/12/10 02:18:30;;;;;;;80.43;37.15;;;;;;;0.26;100.00;100145.72;4885786;29;20485;-82
2021/12/10 02:21:02;;;;;;;90.68;39.20;;;;;;;0.16;100.00;100129.97;4883233;29;20228;-82
2021/12/10 02:23:35;;;;;;;94.07;41.13;;;;;;;0.17;100.00;100136.13;4867427;29;20197;-82
2021/12/10 02:26:02;;;;;;;85.43;36.97;;;;;;;0.20;100.00;100126.44;4865406;29;20175;-82
2021/12/10 02:28:28;;;;;;;83.60;37.72;;;;;;;0.21;100.00;100119.41;4862307;29;20205;-82
2021/12/10 02:30:55;;;;;;;86.65;39.17;;;;;;;0.22;100.00;100126.44;4863616;29;20229;-82
2021/12/10 02:33:22;;;;;;;87.10;39.70;;;;;;;0.26;100.00;100112.31;4862072;29;20265;-82
2021/12/10 02:35:47;;;;;;;94.05;39.13;;;;;;;0.23;100.00;100112.38;4861637;29;20201;-82
2021/12/10 02:38:17;;;;;;;84.68;39.15;;;;;;;0.23;100.00;100120.28;4862783;29;20178;-82
2021/12/10 02:40:43;;;;;;;79.93;37.03;;;;;;;0.22;100.00;100110.63;4862590;29;20225;-82
2021/12/10 02:43:11;;;;;;;85.28;38.10;;;;;;;0.20;100.00;100104.50;4861889;29;20182;-82
2021/12/10 02:45:38;;;;;;;91.20;39.53;;;;;;;0.17;100.00;100097.47;4861715;29;20184;-82
2021/12/10 02:48:04;;;;;;;90.18;40.65;;;;;;;0.14;100.00;100104.53;4860729;29;20214;-82
2021/12/10 02:50:32;;;;;;;91.60;40.45;;;;;;;0.14;100.00;100115.06;4846916;29;20202;-82
2021/12/10 02:52:58;;;;;;;92.65;39.90;;;;;;;0.16;100.00;100114.16;4862463;29;20253;-82
2021/12/10 02:55:24;;;;;;;86.03;39.58;;;;;;;0.13;100.00;100113.31;4846060;29;20245;-82
2021/12/10 02:57:54;;;;;;;89.90;38.00;;;;;;;0.11;100.00;100109.81;4862669;29;20186;-82
2021/12/10 03:00:31;;;;;;;89.40;38.95;;;;;;;0.16;100.00;100105.41;4862581;29;20513;-82
2021/12/10 03:02:58;;;;;;;91.63;39.50;;;;;;;0.09;100.00;100107.22;4861102;29;20540;-82
2021/12/10 03:05:24;;;;;;;85.03;38.17;;;;;;;0.17;100.00;100101.88;4862473;29;20306;-81
2021/12/10 03:07:51;;;;;;;88.47;38.95;;;;;;;0.10;100.00;100097.53;4862032;29;20213;-82
2021/12/10 03:10:20;;;;;;;91.65;40.45;;;;;;;0.10;100.00;100089.63;4864597;29;20178;-82
2021/12/10 03:12:45;;;;;;;84.30;39.47;;;;;;;0.07;100.00;100087.91;4862402;29;20178;-82
2021/12/10 03:15:12;;;;;;;90.45;39.53;;;;;;;0.10;100.00;100105.44;4864029;29;20181;-82
2021/12/10 03:17:38;;;;;;;95.70;39.92;;;;;;;0.09;100.00;100106.31;4860816;29;20186;-82
2021/12/10 03:20:07;;;;;;;91.65;39.15;;;;;;;0.09;100.00;100096.69;4862481;29;20182;-82
2021/12/10 03:22:33;;;;;;;90.97;38.30;;;;;;;0.11;100.00;100094.00;4847165;29;20194;-82
2021/12/10 03:25:00;;;;;;;85.97;39.15;;;;;;;0.07;100.00;100100.22;4863062;29;20178;-82
2021/12/10 03:27:25;;;;;;;88.32;39.33;;;;;;;0.03;100.00;100082.69;4865905;29;20641;-82
2021/12/10 03:29:52;;;;;;;82.70;37.58;;;;;;;0.05;100.00;100083.53;4850652;29;20201;-82
2021/12/10 03:32:24;;;;;;;91.65;39.40;;;;;;;0.11;100.00;100092.28;4867369;29;20194;-82
2021/12/10 03:34:51;;;;;;;84.20;38.38;;;;;;;0.06;100.00;100090.53;4865369;29;20170;-82
2021/12/10 03:37:19;;;;;;;91.57;39.80;;;;;;;0.09;100.00;100088.78;4867070;29;20723;-82
2021/12/10 03:39:46;;;;;;;81.03;39.35;;;;;;;0.12;100.00;100082.59;4866486;29;20178;-82
2021/12/10 03:42:13;;;;;;;87.05;39.10;;;;;;;0.13;100.00;100084.34;4865658;29;20574;-82
2021/12/10 03:44:39;;;;;;;88.88;38.47;;;;;;;0.10;100.00;100077.34;4866364;29;20178;-82
2021/12/10 03:47:07;;;;;;;84.75;38.95;;;;;;;0.11;100.00;100084.38;4865528;29;20809;-82
2021/12/10 03:49:35;;;;;;;93.82;39.03;;;;;;;0.11;100.00;100088.75;4868127;29;20668;-82
2021/12/10 03:52:00;;;;;;;88.97;39.42;;;;;;;0.13;100.00;100084.34;4868626;29;20567;-82
2021/12/10 03:54:27;;;;;;;83.03;38.47;;;;;;;0.12;100.00;100083.47;4867561;29;20281;-81
2021/12/10 03:56:53;;;;;;;86.28;38.75;;;;;;;0.11;100.00;100081.75;4869204;29;20171;-81
2021/12/10 03:59:20;;;;;;;83.30;39.03;;;;;;;0.19;100.00;100086.94;4867857;29;20177;-81
2021/12/10 04:01:49;;;;;;;77.22;37.67;;;;;;;0.20;100.00;100080.78;4866269;29;20213;-81
2021/12/10 04:04:22;;;;;;;88.38;40.17;;;;;;;0.17;100.00;100081.66;4867664;29;20174;-81
2021/12/10 04:06:48;;;;;;;79.75;38.67;;;;;;;0.19;100.00;100084.28;4864640;29;20194;-82
2021/12/10 04:09:14;;;;;;;79.70;35.83;;;;;;;0.22;100.00;100086.03;4863283;29;20178;-82
2021/12/10 04:11:41;;;;;;;78.35;35.83;;;;;;;0.23;100.00;100074.63;4863139;29;20202;-82
2021/12/10 04:14:07;;;;;;;90.38;39.60;;;;;;;0.22;100.00;100081.66;4864449;29;20632;-82
2021/12/10 04:16:34;;;;;;;84.18;37.90;;;;;;;0.23;100.00;100085.16;4883228;29;20173;-83
2021/12/10 04:19:03;;;;;;;83.47;37.22;;;;;;;0.23;100.00;100080.75;4885361;29;20174;-83
2021/12/10 04:21:29;;;;;;;80.95;37.50;;;;;;;0.26;100.00;100079.84;4878872;29;20262;-83
2021/12/10 04:23:55;;;;;;;78.28;37.05;;;;;;;0.23;100.00;100075.47;4861625;29;20186;-82
2021/12/10 04:26:24;;;;;;;82.72;38.08;;;;;;;0.24;100.00;100065.81;4881130;29;20699;-81
2021/12/10 04:28:51;;;;;;;75.38;36.50;;;;;;;0.24;100.00;100071.09;4883941;29;20238;-81
2021/12/10 04:31:17;;;;;;;81.65;37.30;;;;;;;0.26;100.00;100059.63;4883854;29;20217;-81
2021/12/10 04:33:43;;;;;;;77.05;37.33;;;;;;;0.26;100.00;100064.03;4868427;29;20186;-81
2021/12/10 04:36:09;;;;;;;81.28;36.70;;;;;;;0.25;100.00;100057.03;4885676;29;20184;-81
2021/12/10 04:38:35;;;;;;;78.82;36.80;;;;;;;0.29;100.00;100071.94;4884301;29;20189;-81
2021/12/10 04:41:05;;;;;;;78.90;37.03;;;;;;;0.29;100.00;100059.63;4867470;29;20197;-82
2021/12/10 04:43:33;;;;;;;78.45;37.55;;;;;;;0.26;100.00;100050.88;4884089;29;20170;-81
2021/12/10 04:45:58;;;;;;;80.07;36.40;;;;;;;0.25;100.00;100051.78;4883341;29;20237;-81
2021/12/10 04:48:26;;;;;;;75.28;36.20;;;;;;;0.23;100.00;100043.88;4884460;29;20269;-81
2021/12/10 04:50:52;;;;;;;75.15;36.45;;;;;;;0.25;100.00;100044.72;4883672;29;20228;-81
2021/12/10 04:53:18;;;;;;;74.93;36.67;;;;;;;0.25;100.00;100046.50;4883155;29;20260;-81
2021/12/10 04:55:44;;;;;;;77.28;37.40;;;;;;;0.23;100.00;100046.50;4884307;29;20173;-80
2021/12/10 04:58:11;;;;;;;74.70;35.60;;;;;;;0.23;100.00;100043.88;4867454;29;20632;-81
2021/12/10 05:00:43;;;;;;;78.85;36.17;;;;;;;0.23;100.00;100049.13;4881875;29;20189;-81
2021/12/10 05:03:09;;;;;;;70.30;35.20;;;;;;;0.19;100.00;100048.28;4880922;29;20173;-81
2021/12/10 05:05:35;;;;;;;83.13;35.40;;;;;;;0.20;100.00;100051.81;4880606;29;20204;-81
2021/12/10 05:08:02;;;;;;;78.72;36.55;;;;;;;0.23;100.00;100058.81;4866151;29;20213;-82
2021/12/10 05:10:28;;;;;;;72.72;36.88;;;;;;;0.24;100.00;100043.00;4882792;29;20218;-81
2021/12/10 05:12:53;;;;;;;82.20;36.75;;;;;;;0.22;100.00;100047.41;4866263;29;20181;-81
2021/12/10 05:15:24;;;;;;;79.03;36.20;;;;;;;0.23;100.00;100043.00;4882635;29;20185;-81
2021/12/10 05:17:51;;;;;;;75.03;34.85;;;;;;;0.24;100.00;100045.63;4883237;29;20193;-80
2021/12/10 05:20:23;;;;;;;76.07;36.53;;;;;;;0.26;100.00;100045.59;4896642;29;20181;-82
2021/12/10 05:22:49;;;;;;;79.75;36.08;;;;;;;0.24;100.00;100027.19;4881078;29;20172;-82
2021/12/10 05:25:16;;;;;;;75.80;35.03;;;;;;;0.24;100.00;100039.47;4881451;29;20180;-82
2021/12/10 05:27:44;;;;;;;70.97;35.70;;;;;;;0.24;100.00;100043.00;4880679;29;20210;-82
2021/12/10 05:30:13;;;;;;;78.55;35.88;;;;;;;0.25;100.00;100026.28;4881306;29;20217;-82
2021/12/10 05:32:39;;;;;;;80.47;35.58;;;;;;;0.25;100.00;100025.44;4881572;29;20233;-81
2021/12/10 05:35:06;;;;;;;75.68;35.28;;;;;;;0.26;100.00;100027.16;4873953;29;20190;-81
2021/12/10 05:37:32;;;;;;;72.00;36.53;;;;;;;0.25;100.00;100026.28;4861961;29;20181;-82
2021/12/10 05:39:57;;;;;;;73.10;34.08;;;;;;;0.26;100.00;100027.16;4862582;29;20257;-81
2021/12/10 05:42:23;;;;;;;70.18;33.60;;;;;;;0.20;100.00;100018.44;4862434;29;20210;-82
2021/12/10 05:44:48;;;;;;;72.03;34.20;;;;;;;0.24;100.00;100014.03;4863281;29;20200;-81
2021/12/10 05:47:14;;;;;;;77.07;33.80;;;;;;;0.19;100.00;100019.31;4862600;29;20265;-82
2021/12/10 05:49:40;;;;;;;82.47;36.13;;;;;;;0.23;100.00;100004.34;4863068;29;20178;-81
2021/12/10 05:52:06;;;;;;;72.78;33.88;;;;;;;0.26;100.00;100008.72;4862592;29;20193;-82
2021/12/10 05:54:33;;;;;;;65.43;33.40;;;;;;;0.23;100.00;99996.47;4863141;29;20175;-81
2021/12/10 05:56:59;;;;;;;69.57;34.67;;;;;;;0.22;100.00;99991.19;4863602;29;20182;-82
2021/12/10 05:59:24;;;;;;;69.03;34.53;;;;;;;0.20;100.00;99986.81;4862801;29;20193;-82
2021/12/10 06:01:51;;;;;;;66.88;33.97;;;;;;;0.22;100.00;99997.34;4865029;29;20194;-82
2021/12/10 06:04:22;;;;;;;74.55;35.35;;;;;;;0.22;100.00;99985.94;4864690;29;20178;-81
2021/12/10 06:06:48;;;;;;;76.43;34.85;;;;;;;0.18;100.00;99977.19;4863170;29;20258;-81
2021/12/10 06:09:13;;;;;;;78.60;34.42;;;;;;;0.19;100.00;99982.44;4867113;29;20186;-82
2021/12/10 06:11:38;;;;;;;79.72;35.08;;;;;;;0.20;100.00;99978.94;4864113;29;20241;-82
2021/12/10 06:14:06;;;;;;;66.47;33.80;;;;;;;0.20;100.00;99981.56;4866984;29;20181;-82
2021/12/10 06:16:32;;;;;;;69.18;32.53;;;;;;;0.21;100.00;99979.78;4865900;29;20256;-81
2021/12/10 06:18:57;;;;;;;68.78;35.00;;;;;;;0.19;100.00;99984.19;4866568;29;20166;-82
2021/12/10 06:21:23;;;;;;;69.55;33.50;;;;;;;0.19;100.00;99977.16;4866126;29;20205;-81
2021/12/10 06:23:48;;;;;;;61.08;32.35;;;;;;;0.19;100.00;99971.91;4863583;29;20206;-81
2021/12/10 06:26:14;;;;;;;70.97;33.75;;;;;;;0.24;100.00;99971.88;4848364;29;20803;-82
2021/12/10 06:28:44;;;;;;;72.22;33.53;;;;;;;0.22;100.00;99971.00;4862795;29;20198;-82
2021/12/10 06:31:12;;;;;;;69.22;33.47;;;;;;;0.18;100.00;99971.94;4863020;29;20699;-82
2021/12/10 06:33:37;;;;;;;74.05;32.83;;;;;;;0.19;100.00;99964.00;4864287;29;20178;-83
2021/12/10 06:36:05;;;;;;;64.40;33.05;;;;;;;0.19;100.00;99973.66;4862995;29;20181;-83
2021/12/10 06:38:32;;;;;;;65.47;33.65;;;;;;;0.20;100.00;99975.44;4853010;29;20174;-82
2021/12/10 06:40:58;;;;;;;74.70;34.25;;;;;;;0.22;100.00;99984.19;4845268;29;20707;-83
2021/12/10 06:43:24;;;;;;;69.47;33.17;;;;;;;0.22;100.00;99980.66;4845989;29;20202;-82
2021/12/10 06:45:51;;;;;;;69.60;33.40;;;;;;;0.26;100.00;99979.75;4845943;29;20558;-83
2021/12/10 06:48:19;;;;;;;69.00;33.00;;;;;;;0.26;100.00;99967.44;4844998;29;20562;-82
2021/12/10 06:50:51;;;;;;;73.07;33.88;;;;;;;0.23;100.00;99975.38;4844704;29;20194;-83
2021/12/10 06:53:19;;;;;;;69.43;32.78;;;;;;;0.22;100.00;99970.13;4844074;29;20175;-83
2021/12/10 06:55:46;;;;;;;65.57;32.35;;;;;;;0.26;100.00;99962.16;4847132;29;20209;-81
2021/12/10 06:58:11;;;;;;;70.45;32.90;;;;;;;0.23;100.00;99959.56;4845406;29;20255;-82
2021/12/10 07:00:50;;;;;;;68.45;32.97;;;;;;;0.24;100.00;99968.34;4845040;29;20202;-83
2021/12/10 07:03:20;;;;;;;69.63;31.08;;;;;;;0.30;100.00;99966.53;4843657;29;20254;-84
2021/12/10 07:05:47;;;;;;;70.40;33.92;;;;;;;0.27;100.00;99974.47;4846990;29;20673;-83
2021/12/10 07:08:13;;;;;;;65.05;32.35;;;;;;;0.25;100.00;99970.09;4847982;29;20209;-83
2021/12/10 07:10:39;;;;;;;71.50;32.70;;;;;;;0.25;100.00;99973.59;4864077;29;20249;-83
2021/12/10 07:13:06;;;;;;;76.35;35.65;;;;;;;0.24;100.00;99961.34;4846749;29;20189;-83
2021/12/10 07:15:34;;;;;;;72.30;33.38;;;;;;;0.23;100.00;99961.34;4864434;29;20177;-82
2021/12/10 07:17:59;;;;;;;75.20;34.28;;;;;;;0.27;100.00;99966.56;4869047;29;20189;-83
2021/12/10 07:20:25;;;;;;;69.63;34.28;;;;;;;0.26;100.00;99966.56;4879690;29;20200;-83
2021/12/10 07:22:51;;;;;;;74.82;34.03;;;;;;;0.23;100.00;99972.75;4878059;29;20233;-83
2021/12/10 07:25:20;;;;;;;74.53;34.05;;;;;;;0.22;100.00;99978.03;4884165;29;20173;-84
2021/12/10 07:27:46;;;;;;;73.55;33.97;;;;;;;0.23;100.00;99979.78;4885155;29;20221;-84
2021/12/10 07:30:11;;;;;;;77.53;45.97;;;;;;;0.24;100.00;99976.25;4881060;29;20493;-84
2021/12/10 07:32:37;;;;;;;75.40;38.45;;;;;;;0.22;100.00;99965.75;4880887;29;20178;-83
2021/12/10 07:35:05;;;;;;;73.90;35.42;;;;;;;0.17;100.00;99975.44;4881033;29;20181;-84
2021/12/10 07:37:31;;;;;;;72.40;35.22;;;;;;;0.20;100.00;99965.75;4882086;29;20194;-85
2021/12/10 07:39:57;;;;;;;73.60;34.35;;;;;;;0.21;100.00;99958.72;4863728;29;20174;-84
2021/12/10 07:42:22;;;;;;;72.53;34.58;;;;;;;0.24;100.00;99968.34;4865751;29;20244;-85
2021/12/10 07:44:49;;;;;;;72.00;33.67;;;;;;;0.24;100.00;99961.34;4864229;29;20170;-84
2021/12/10 07:47:15;;;;;;;70.90;33.50;;;;;;;0.24;100.00;99960.44;4864102;29;20198;-84
2021/12/10 07:49:43;;;;;;;70.15;33.47;;;;;;;0.27;100.00;99956.03;4863303;29;20198;-83
2021/12/10 07:52:16;;;;;;;72.57;32.08;;;;;;;0.25;100.00;99956.94;4865638;29;20676;-81
2021/12/10 07:54:46;;;;;;;82.28;35.10;;;;;;;0.24;100.00;99949.91;4864207;29;20197;-82
2021/12/10 07:57:12;;;;;;;72.72;34.50;;;;;;;0.26;100.00;99964.81;4863221;29;20178;-81
2021/12/10 07:59:38;;;;;;;70.65;35.00;;;;;;;0.29;100.00;99961.28;4864220;29;20198;-81
2021/12/10 08:02:04;;;;;;;69.68;33.78;;;;;;;0.24;100.00;99956.06;4861983;29;20292;-83
2021/12/10 08:04:30;;;;;;;73.38;34.70;;;;;;;0.26;100.00;99959.53;4862326;29;20205;-83
2021/12/10 08:06:56;;;;;;;71.70;33.88;;;;;;;0.31;100.00;99957.75;4862085;29;20201;-83
2021/12/10 08:09:21;;;;;;;73.25;33.85;;;;;;;0.32;100.00;99961.25;4862079;29;20178;-83
2021/12/10 08:11:47;;;;;;;70.95;34.08;;;;;;;0.32;100.00;99958.63;4849760;29;20611;-82
2021/12/10 08:14:12;;;;;;;70.15;34.08;;;;;;;0.34;100.00;99960.34;4849684;29;20182;-82
2021/12/10 08:16:39;;;;;;;74.60;34.55;;;;;;;0.35;100.00;99958.56;4865213;29;20266;-83
2021/12/10 08:19:06;;;;;;;77.95;35.25;;;;;;;0.36;100.00;99955.91;4867186;29;20186;-84
2021/12/10 08:21:32;;;;;;;72.45;32.40;;;;;;;0.44;100.00;99947.94;4867455;29;20194;-82
2021/12/10 08:23:57;;;;;;;76.13;35.42;;;;;;;0.41;100.00;99962.00;4865069;29;20190;-84
2021/12/10 08:26:23;;;;;;;73.03;35.00;;;;;;;0.45;100.00;99951.44;4864500;29;20181;-86
2021/12/10 08:28:49;;;;;;;80.45;34.15;;;;;;;0.45;100.00;99949.69;4865117;29;20645;-84
2021/12/10 08:31:16;;;;;;;67.30;33.70;;;;;;;0.50;100.00;99963.66;4864590;29;20201;-83
2021/12/10 08:33:46;;;;;;;72.13;33.38;;;;;;;0.52;100.00;99955.75;4870866;29;20198;-83
2021/12/10 08:36:12;;;;;;;73.43;34.03;;;;;;;0.50;100.00;99949.63;4871436;29;20201;-83
2021/12/10 08:38:39;;;;;;;72.10;32.85;;;;;;;0.49;100.00;99966.34;4869005;29;20174;-84
2021/12/10 08:41:19;;;;;;;69.75;33.00;;;;;;;0.55;100.00;99958.38;4870448;29;20217;-83
2021/12/10 08:43:44;;;;;;;70.47;32.78;;;;;;;0.63;100.00;99969.69;4870257;29;20253;-83
2021/12/10 08:46:13;;;;;;;81.55;40.60;;;;;;;0.67;100.00;99967.88;4869560;29;20179;-83
2021/12/10 08:48:39;;;;;;;76.05;34.67;;;;;;;0.65;100.00;99967.03;4849865;29;20214;-83
2021/12/10 08:51:19;;;;;;;68.63;33.72;;;;;;;0.66;100.00;99967.03;4863424;29;20634;-82
2021/12/10 08:53:45;;;;;;;67.25;32.35;;;;;;;0.70;100.00;99971.38;4868482;29;20281;-83
2021/12/10 08:56:10;;;;;;;77.25;34.90;;;;;;;0.64;100.00;99974.06;4866513;29;20202;-83
2021/12/10 08:58:37;;;;;;;63.35;32.55;;;;;;;0.68;100.00;99970.50;4865472;29;20273;-83
2021/12/10 09:01:08;;;;;;;64.40;31.15;;;;;;;0.72;100.00;99973.97;4866161;29;20197;-84
2021/12/10 09:03:34;;;;;;;71.68;34.00;;;;;;;0.72;100.00;99974.88;4866235;29;20265;-82
2021/12/10 09:06:02;;;;;;;66.35;32.47;;;;;;;0.78;100.00;99977.41;4867250;29;20663;-84
2021/12/10 09:08:28;;;;;;;68.72;31.40;;;;;;;0.84;100.00;99972.97;4849771;29;20214;-84
2021/12/10 09:10:54;;;;;;;64.35;30.45;;;;;;;0.84;100.00;99978.25;4865104;29;20194;-83
2021/12/10 09:13:21;;;;;;;69.15;33.47;;;;;;;0.79;100.00;99973.88;4852710;29;20721;-84
2021/12/10 09:15:58;;;;;;;72.55;33.63;;;;;;;0.79;100.00;99978.31;4846794;29;20183;-83
2021/12/10 09:18:24;;;;;;;68.30;33.38;;;;;;;0.74;100.00;99973.06;4831356;29;20194;-84
2021/12/10 09:20:52;;;;;;;75.82;34.60;;;;;;;0.73;100.00;99970.47;4847454;29;20274;-83
2021/12/10 09:23:22;;;;;;;68.78;34.53;;;;;;;0.73;100.00;99984.50;4833883;29;20653;-83
2021/12/10 09:25:49;;;;;;;76.93;35.60;;;;;;;0.77;100.00;99978.31;4849230;29;20289;-83
2021/12/10 09:28:15;;;;;;;72.00;33.08;;;;;;;0.85;100.00;99975.56;4847633;29;20223;-83
2021/12/10 09:30:44;;;;;;;74.05;35.25;;;;;;;0.84;100.00;99975.59;4832418;29;20209;-84
2021/12/10 09:33:10;;;;;;;71.50;33.28;;;;;;;0.93;100.00;99972.84;4849144;29;20934;-84
2021/12/10 09:35:36;;;;;;;72.63;33.67;;;;;;;0.96;100.00;99976.31;4847675;29;20211;-82
2021/12/10 09:38:04;;;;;;;68.10;33.85;;;;;;;0.97;100.00;99970.16;4831577;29;20826;-82
2021/12/10 09:40:34;;;;;;;72.60;34.08;;;;;;;1.05;100.00;99969.16;4847463;29;20199;-83
2021/12/10 09:43:00;;;;;;;69.30;35.13;;;;;;;1.01;100.00;99971.00;4852014;29;20242;-83
2021/12/10 09:45:28;;;;;;;65.32;33.80;;;;;;;1.11;100.00;99971.72;4850572;29;20183;-83
2021/12/10 09:47:54;;;;;;;72.70;33.33;;;;;;;1.07;100.00;99986.72;4849072;29;20287;-82
2021/12/10 09:50:25;;;;;;;68.32;33.00;;;;;;;0.98;100.00;99971.91;4848677;29;20265;-83
2021/12/10 09:52:51;;;;;;;69.88;35.10;;;;;;;1.01;100.00;99971.84;4848069;29;20182;-83
2021/12/10 09:55:18;;;;;;;67.43;34.17;;;;;;;1.06;100.00;99974.44;4847516;29;20179;-83
2021/12/10 09:57:47;;;;;;;73.72;35.38;;;;;;;1.01;100.00;99974.50;4832358;29;20174;-83
2021/12/10 10:00:25;;;;;;;78.45;36.08;;;;;;;1.00;100.00;99967.44;4833041;29;20251;-83
2021/12/10 10:02:51;;;;;;;72.05;34.95;;;;;;;1.09;100.00;99978.78;4831749;29;20179;-83
2021/12/10 10:05:18;;;;;;;78.13;35.17;;;;;;;1.11;100.00;99977.00;4831477;29;20186;-83
2021/12/10 10:07:50;;;;;;;76.07;35.65;;;;;;;1.14;100.00;99977.84;4831155;29;20259;-82
2021/12/10 10:10:18;;;;;;;64.47;32.95;;;;;;;1.07;100.00;99967.38;4846094;29;20194;-84
2021/12/10 10:12:47;;;;;;;87.65;43.72;;;;;;;1.05;100.00;99972.69;4855250;29;20185;-83
2021/12/10 10:15:17;;;;;;;83.60;41.47;;;;;;;1.12;100.00;99968.22;4864108;29;20273;-82
2021/12/10 10:17:43;;;;;;;66.30;34.13;;;;;;;1.17;100.00;99967.22;4864164;29;20170;-83
2021/12/10 10:20:13;;;;;;;72.63;35.20;;;;;;;1.14;100.00;99962.00;4863786;29;20394;-83
2021/12/10 10:22:39;;;;;;;72.78;35.95;;;;;;;1.15;100.00;99950.56;4863536;29;20704;-81
2021/12/10 10:25:08;;;;;;;74.43;34.75;;;;;;;1.18;100.00;99953.16;4861788;29;20268;-82
2021/12/10 10:27:36;;;;;;;68.05;32.65;;;;;;;1.17;100.00;99950.53;4861747;29;20270;-82
2021/12/10 10:30:10;;;;;;;63.90;33.17;;;;;;;1.20;100.00;99948.75;4846523;29;20181;-82
2021/12/10 10:32:35;;;;;;;66.55;33.63;;;;;;;1.14;100.00;99938.28;4845918;29;20271;-82
2021/12/10 10:35:08;;;;;;;61.30;31.55;;;;;;;1.26;100.00;99936.34;4864009;29;20268;-81
2021/12/10 10:37:34;;;;;;;67.78;31.67;;;;;;;1.27;100.00;99933.69;4846778;29;20189;-83
2021/12/10 10:40:04;;;;;;;69.57;32.90;;;;;;;1.20;100.00;99922.34;4848912;29;20594;-82
2021/12/10 10:42:30;;;;;;;58.85;30.75;;;;;;;1.23;100.00;99926.72;4864179;29;20211;-81
2021/12/10 10:45:02;;;;;;;67.28;32.97;;;;;;;1.24;100.00;99934.59;4868907;29;20194;-81
2021/12/10 10:47:28;;;;;;;67.22;31.15;;;;;;;1.29;100.00;99931.00;4867655;29;20567;-82
2021/12/10 10:50:16;;;;;;;66.15;31.27;;;;;;;1.23;100.00;99919.66;4865917;29;20273;-81
2021/12/10 10:52:52;;;;;;;67.78;32.33;;;;;;;1.31;100.00;99918.66;4862999;29;20158;-82
2021/12/10 10:55:21;;;;;;;68.57;32.08;;;;;;;1.33;100.00;99924.78;4864004;29;20570;-83
2021/12/10 10:57:55;;;;;;;63.35;31.20;;;;;;;1.28;100.00;99921.38;4861409;29;20230;-83
2021/12/10 11:00:29;;;;;;;59.03;30.15;;;;;;;1.40;100.00;99916.78;4863885;29;20174;-82
2021/12/10 11:03:03;;;;;;;66.80;32.28;;;;;;;1.40;100.00;99900.03;4864689;29;20200;-82
2021/12/10 11:05:30;;;;;;;65.32;31.00;;;;;;;1.38;100.00;99910.66;4866581;29;20175;-81
2021/12/10 11:07:59;;;;;;;58.75;30.08;;;;;;;1.41;100.00;99900.03;4864492;29;20633;-81
2021/12/10 11:10:35;;;;;;;60.30;30.02;;;;;;;1.50;100.00;99901.66;4864399;29;20566;-82
2021/12/10 11:13:19;;;;;;;60.08;29.08;;;;;;;1.40;100.00;99915.88;4848529;29;20178;-82
2021/12/10 11:15:54;;;;;;;57.55;29.00;;;;;;;1.42;100.00;99903.53;4865855;29;20165;-81
2021/12/10 11:18:19;;;;;;;58.80;29.35;;;;;;;1.51;100.00;99899.88;4864238;29;20185;-86
2021/12/10 11:20:46;;;;;;;55.22;27.40;;;;;;;1.47;100.00;99906.13;4865157;29;20255;-84
2021/12/10 11:23:13;;;;;;;56.70;27.40;;;;;;;1.45;100.00;99906.16;4863813;29;20591;-84
2021/12/10 11:25:49;;;;;;;58.40;27.10;;;;;;;1.52;100.00;99894.59;4847919;29;20655;-83